createdAt,value
2022-08-25T00:00:36.901Z,25.80
2022-08-25T00:03:08.412Z,25.70
2022-08-25T00:05:37.334Z,25.60
2022-08-25T00:08:07.780Z,25.60
2022-08-25T00:10:38.670Z,25.50
2022-08-25T00:13:08.179Z,25.40
2022-08-25T00:15:38.682Z,25.40
2022-08-25T00:18:19.459Z,25.40
2022-08-25T00:20:49.400Z,25.40
2022-08-25T00:23:18.453Z,25.40
2022-08-25T00:25:47.766Z,25.40
2022-08-25T00:28:16.967Z,25.30
2022-08-25T00:30:47.490Z,25.20
2022-08-25T00:33:16.497Z,24.90
2022-08-25T00:35:46.381Z,24.80
2022-08-25T00:38:16.814Z,24.70
2022-08-25T00:40:46.976Z,24.50
2022-08-25T00:43:15.806Z,24.60
2022-08-25T00:45:44.588Z,24.50
2022-08-25T00:48:14.823Z,24.50
2022-08-25T00:50:43.658Z,24.40
2022-08-25T00:53:12.494Z,24.30
2022-08-25T00:55:42.353Z,24.20
2022-08-25T00:58:17.347Z,24.10
2022-08-25T01:00:49.644Z,23.90
2022-08-25T01:03:20.754Z,23.90
2022-08-25T01:05:53.993Z,24.00
2022-08-25T01:08:29.196Z,24.00
2022-08-25T01:11:00.812Z,24.00
2022-08-25T01:13:35.002Z,23.90
2022-08-25T01:16:04.715Z,24.00
2022-08-25T01:18:48.106Z,24.10
2022-08-25T01:21:21.070Z,24.20
2022-08-25T01:23:51.204Z,24.40
2022-08-25T01:26:30.244Z,24.50
2022-08-25T01:29:17.898Z,24.30
2022-08-25T01:31:46.845Z,24.30
2022-08-25T01:34:16.194Z,24.40
2022-08-25T01:36:46.904Z,24.40
2022-08-25T01:39:16.276Z,24.20
2022-08-25T01:41:56.527Z,24.20
2022-08-25T01:44:26.096Z,24.30
2022-08-25T01:46:55.429Z,24.20
2022-08-25T01:49:24.269Z,24.30
2022-08-25T01:51:58.658Z,24.20
2022-08-25T01:54:27.515Z,24.30
2022-08-25T01:56:56.258Z,24.30
2022-08-25T01:59:25.821Z,24.40
2022-08-25T02:02:00.147Z,24.50
2022-08-25T02:04:32.502Z,24.40
2022-08-25T02:07:05.307Z,24.30
2022-08-25T02:09:34.327Z,24.10
2022-08-25T02:12:03.363Z,24.10
2022-08-25T02:14:32.257Z,24.30
2022-08-25T02:17:01.125Z,24.30
2022-08-25T02:19:31.218Z,24.30
2022-08-25T02:22:00.665Z,24.30
2022-08-25T02:24:31.123Z,24.20
2022-08-25T02:27:00.791Z,24.20
2022-08-25T02:29:29.812Z,24.30
2022-08-25T02:31:59.105Z,24.20
2022-08-25T02:34:27.962Z,24.30
2022-08-25T02:36:56.773Z,24.30
2022-08-25T02:39:25.722Z,24.30
2022-08-25T02:41:56.075Z,24.20
2022-08-25T02:44:24.892Z,24.20
2022-08-25T02:46:53.704Z,24.10
2022-08-25T02:49:22.593Z,24.20
2022-08-25T02:51:52.056Z,24.00
2022-08-25T02:54:20.905Z,24.00
2022-08-25T02:56:50.579Z,23.80
2022-08-25T02:59:21.219Z,23.60
2022-08-25T03:01:50.146Z,23.70
2022-08-25T03:04:19.359Z,23.80
2022-08-25T03:06:48.489Z,23.90
2022-08-25T03:09:18.277Z,23.80
2022-08-25T03:11:47.577Z,23.70
2022-08-25T03:14:16.675Z,23.90
2022-08-25T03:16:47.117Z,23.90
2022-08-25T03:19:16.908Z,23.90
2022-08-25T03:21:46.468Z,24.00
2022-08-25T03:24:15.227Z,23.90
2022-08-25T03:26:56.197Z,23.90
2022-08-25T03:29:26.907Z,23.80
2022-08-25T03:31:58.417Z,24.00
2022-08-25T03:34:29.221Z,24.00
2022-08-25T03:36:59.118Z,23.90
2022-08-25T03:39:29.193Z,23.80
2022-08-25T03:41:58.047Z,23.60
2022-08-25T03:44:26.888Z,23.60
2022-08-25T03:46:57.169Z,23.90
2022-08-25T03:49:26.511Z,23.70
2022-08-25T03:51:56.326Z,23.60
2022-08-25T03:54:26.758Z,23.70
2022-08-25T03:56:56.127Z,23.80
2022-08-25T03:59:25.816Z,23.90
2022-08-25T04:01:55.548Z,23.90
2022-08-25T04:04:26.007Z,24.00
2022-08-25T04:06:54.857Z,24.00
2022-08-25T04:09:24.107Z,23.90
2022-08-25T04:11:53.575Z,23.90
2022-08-25T04:14:23.903Z,23.70
2022-08-25T04:16:54.181Z,23.50
2022-08-25T04:19:23.568Z,23.30
2022-08-25T04:21:56.762Z,23.10
2022-08-25T04:24:26.177Z,23.10
2022-08-25T04:26:54.967Z,23.20
2022-08-25T04:29:25.629Z,23.30
2022-08-25T04:31:55.621Z,23.40
2022-08-25T04:34:29.462Z,23.60
2022-08-25T04:37:01.288Z,23.80
2022-08-25T04:39:30.567Z,23.80
2022-08-25T04:42:00.879Z,23.70
2022-08-25T04:44:30.908Z,23.70
2022-08-25T04:47:00.596Z,23.80
2022-08-25T04:49:29.709Z,23.80
2022-08-25T04:52:00.336Z,23.80
2022-08-25T04:54:29.165Z,23.90
2022-08-25T04:57:06.285Z,23.80
2022-08-25T04:59:35.086Z,23.70
2022-08-25T05:02:05.442Z,23.70
2022-08-25T05:04:35.912Z,23.70
2022-08-25T05:07:06.859Z,23.80
2022-08-25T05:09:35.804Z,23.80
2022-08-25T05:12:05.462Z,23.70
2022-08-25T05:14:35.434Z,23.70
2022-08-25T05:17:04.336Z,23.50
2022-08-25T05:19:33.144Z,23.50
2022-08-25T05:22:01.936Z,23.60
2022-08-25T05:24:32.155Z,23.60
2022-08-25T05:27:00.978Z,23.60
2022-08-25T05:29:29.866Z,23.70
2022-08-25T05:31:59.008Z,23.70
2022-08-25T05:34:27.926Z,23.80
2022-08-25T05:37:00.234Z,23.90
2022-08-25T05:39:32.626Z,23.90
2022-08-25T05:42:02.886Z,23.90
2022-08-25T05:44:31.706Z,23.90
2022-08-25T05:47:00.566Z,23.80
2022-08-25T05:49:29.537Z,23.90
2022-08-25T05:51:59.821Z,23.90
2022-08-25T05:54:28.746Z,23.90
2022-08-25T05:56:57.913Z,24.00
2022-08-25T05:59:29.480Z,24.00
2022-08-25T06:02:15.609Z,24.10
2022-08-25T06:04:44.866Z,24.20
2022-08-25T06:07:13.796Z,24.20
2022-08-25T06:09:46.147Z,24.20
2022-08-25T06:12:15.244Z,24.30
2022-08-25T06:14:45.568Z,24.30
2022-08-25T06:17:14.406Z,24.40
2022-08-25T06:19:43.305Z,24.50
2022-08-25T06:22:12.622Z,24.80
2022-08-25T06:24:41.528Z,24.90
2022-08-25T06:27:10.336Z,25.10
2022-08-25T06:29:39.175Z,25.30
2022-08-25T06:32:12.201Z,25.40
2022-08-25T06:34:41.067Z,25.40
2022-08-25T06:37:09.926Z,25.40
2022-08-25T06:39:38.695Z,25.50
2022-08-25T06:42:07.826Z,25.70
2022-08-25T06:44:36.699Z,25.80
2022-08-25T06:47:05.867Z,25.70
2022-08-25T06:49:36.340Z,25.80
2022-08-25T06:52:06.126Z,26.00
2022-08-25T06:54:34.946Z,25.90
2022-08-25T06:57:04.269Z,25.90
2022-08-25T06:59:33.087Z,26.10
2022-08-25T07:02:03.663Z,26.30
2022-08-25T07:04:33.023Z,26.10
2022-08-25T07:07:03.417Z,26.30
2022-08-25T07:09:35.259Z,26.40
2022-08-25T07:12:06.511Z,26.40
2022-08-25T07:14:35.519Z,26.30
2022-08-25T07:17:10.553Z,26.10
2022-08-25T07:19:41.380Z,26.30
2022-08-25T07:22:11.645Z,26.50
2022-08-25T07:24:40.500Z,26.70
2022-08-25T07:27:09.334Z,26.70
2022-08-25T07:29:42.257Z,27.00
2022-08-25T07:32:11.696Z,26.60
2022-08-25T07:34:57.893Z,26.50
2022-08-25T07:37:47.787Z,26.50
2022-08-25T07:40:20.068Z,26.60
2022-08-25T07:42:50.705Z,26.80
2022-08-25T07:45:21.183Z,27.00
2022-08-25T07:47:53.918Z,27.30
2022-08-25T07:50:23.242Z,27.30
2022-08-25T07:53:05.564Z,27.30
2022-08-25T07:55:36.714Z,27.20
2022-08-25T07:58:07.297Z,27.10
2022-08-25T08:00:37.908Z,27.20
2022-08-25T08:03:10.002Z,27.00
2022-08-25T08:05:43.350Z,27.00
2022-08-25T08:08:13.698Z,27.10
2022-08-25T08:11:04.154Z,27.20
2022-08-25T08:13:33.176Z,27.10
2022-08-25T08:16:03.785Z,27.40
2022-08-25T08:18:33.703Z,27.30
2022-08-25T08:21:02.445Z,27.10
2022-08-25T08:23:34.176Z,27.50
2022-08-25T08:26:03.038Z,27.70
2022-08-25T08:28:33.253Z,27.50
2022-08-25T08:31:02.304Z,27.50
2022-08-25T08:33:31.687Z,27.80
2022-08-25T08:36:07.194Z,27.90
2022-08-25T08:38:38.735Z,27.80
2022-08-25T08:41:54.302Z,27.60
2022-08-25T08:44:29.607Z,27.50
2022-08-25T08:47:08.985Z,27.80
2022-08-25T08:49:49.087Z,28.10
2022-08-25T08:52:20.984Z,28.30
2022-08-25T08:54:57.353Z,28.10
2022-08-25T08:57:29.859Z,28.20
2022-08-25T09:00:03.190Z,28.00
2022-08-25T09:02:49.727Z,27.80
2022-08-25T09:05:21.251Z,27.80
2022-08-25T09:08:05.086Z,27.80
2022-08-25T09:10:43.278Z,27.90
2022-08-25T09:13:20.588Z,28.20
2022-08-25T09:16:23.212Z,28.30
2022-08-25T09:19:12.947Z,28.60
2022-08-25T09:21:58.436Z,28.80
2022-08-25T09:24:47.686Z,28.80
2022-08-25T09:27:25.576Z,28.80
2022-08-25T09:30:01.648Z,28.30
2022-08-25T09:32:38.888Z,28.10
2022-08-25T09:35:16.297Z,28.10
2022-08-25T09:37:45.236Z,28.50
2022-08-25T09:40:14.027Z,28.60
2022-08-25T09:42:57.946Z,28.80
2022-08-25T09:45:38.078Z,28.90
2022-08-25T09:48:23.882Z,28.70
2022-08-25T09:50:55.045Z,28.70
2022-08-25T09:53:25.016Z,28.90
2022-08-25T09:56:01.595Z,29.40
2022-08-25T09:58:32.114Z,29.50
2022-08-25T10:01:22.665Z,29.40
2022-08-25T10:04:03.596Z,29.40
2022-08-25T10:06:43.905Z,28.90
2022-08-25T10:09:24.477Z,28.90
2022-08-25T10:11:57.709Z,29.00
2022-08-25T10:14:37.408Z,29.70
2022-08-25T10:17:27.625Z,30.20
2022-08-25T10:20:17.375Z,29.80
2022-08-25T10:22:48.190Z,30.50
2022-08-25T10:25:23.634Z,30.40
2022-08-25T10:28:06.475Z,30.30
2022-08-25T10:30:48.521Z,30.20
2022-08-25T10:33:29.835Z,30.30
2022-08-25T10:36:04.533Z,29.90
2022-08-25T10:38:39.733Z,29.40
2022-08-25T10:41:32.783Z,29.40
2022-08-25T10:44:28.565Z,29.60
2022-08-25T10:47:12.255Z,29.70
2022-08-25T10:49:47.474Z,29.80
2022-08-25T10:52:25.115Z,30.10
2022-08-25T10:55:03.163Z,30.40
2022-08-25T10:57:37.452Z,30.40
2022-08-25T11:00:09.795Z,30.20
2022-08-25T11:03:08.705Z,30.70
2022-08-25T11:05:42.719Z,30.10
2022-08-25T11:08:17.974Z,30.00
2022-08-25T11:10:50.766Z,30.10
2022-08-25T11:13:28.314Z,30.00
2022-08-25T11:16:20.333Z,30.00
2022-08-25T11:18:57.764Z,30.50
2022-08-25T11:21:36.297Z,30.60
2022-08-25T11:24:16.184Z,30.80
2022-08-25T11:26:54.785Z,30.30
2022-08-25T11:29:26.694Z,30.70
2022-08-25T11:31:56.064Z,30.70
2022-08-25T11:34:28.854Z,31.60
2022-08-25T11:37:04.105Z,32.10
2022-08-25T11:40:00.089Z,31.60
2022-08-25T11:42:43.262Z,31.30
2022-08-25T11:45:25.254Z,31.60
2022-08-25T11:48:13.754Z,32.00
2022-08-25T11:51:01.497Z,32.00
2022-08-25T11:53:33.185Z,31.70
2022-08-25T11:56:05.712Z,31.20
2022-08-25T11:58:49.755Z,31.30
2022-08-25T12:02:11.224Z,31.00
2022-08-25T12:04:44.196Z,31.30
2022-08-25T12:07:28.120Z,31.50
2022-08-25T12:10:18.774Z,31.60
2022-08-25T12:13:04.858Z,32.70
2022-08-25T12:15:59.280Z,33.00
2022-08-25T12:18:46.633Z,32.40
2022-08-25T12:21:34.304Z,31.30
2022-08-25T12:24:23.440Z,32.10
2022-08-25T12:26:59.373Z,32.00
2022-08-25T12:29:43.687Z,32.60
2022-08-25T12:32:29.520Z,32.80
2022-08-25T12:35:19.016Z,33.10
2022-08-25T12:38:01.307Z,32.90
2022-08-25T12:40:36.994Z,33.80
2022-08-25T12:43:14.633Z,34.50
2022-08-25T12:45:50.672Z,34.30
2022-08-25T12:48:58.101Z,33.80
2022-08-25T12:51:30.221Z,33.50
2022-08-25T12:54:16.077Z,34.70
2022-08-25T12:56:56.710Z,35.30
2022-08-25T12:59:36.519Z,35.10
2022-08-25T13:02:40.033Z,33.20
2022-08-25T13:06:08.105Z,33.20
2022-08-25T13:09:00.569Z,34.30
2022-08-25T13:11:35.422Z,34.90
2022-08-25T13:14:17.980Z,34.40
2022-08-25T13:16:55.624Z,32.10
2022-08-25T13:19:25.763Z,31.50
2022-08-25T13:21:56.125Z,32.40
2022-08-25T13:24:28.593Z,33.00
2022-08-25T13:27:01.003Z,33.30
2022-08-25T13:29:36.877Z,33.70
2022-08-25T13:32:12.696Z,33.10
2022-08-25T13:34:44.554Z,33.20
2022-08-25T13:37:33.452Z,32.80
2022-08-25T13:40:17.629Z,33.20
2022-08-25T13:42:55.649Z,33.90
2022-08-25T13:45:41.605Z,33.50
2022-08-25T13:48:22.957Z,33.40
2022-08-25T13:51:07.842Z,34.60
2022-08-25T13:53:38.049Z,34.80
2022-08-25T13:56:07.544Z,33.60
2022-08-25T13:58:45.094Z,33.30
2022-08-25T14:01:45.016Z,32.30
2022-08-25T14:04:51.224Z,32.80
2022-08-25T14:07:34.373Z,33.10
2022-08-25T14:10:06.601Z,33.70
2022-08-25T14:12:40.068Z,33.30
2022-08-25T14:15:14.267Z,33.30
2022-08-25T14:20:27.395Z,34.50
2022-08-25T14:22:58.821Z,35.10
2022-08-25T14:25:30.474Z,35.80
2022-08-25T14:28:09.103Z,35.70
2022-08-25T14:30:45.993Z,34.60
2022-08-25T14:33:17.914Z,34.80
2022-08-25T14:35:51.926Z,35.40
2022-08-25T14:38:25.209Z,34.60
2022-08-25T14:40:54.225Z,33.30
2022-08-25T14:43:23.961Z,32.20
2022-08-25T14:45:53.654Z,32.00
2022-08-25T14:48:28.186Z,31.70
2022-08-25T14:50:59.736Z,32.60
2022-08-25T14:53:29.263Z,35.00
2022-08-25T14:55:59.068Z,35.80
2022-08-25T14:58:33.847Z,36.50
2022-08-25T15:01:05.634Z,34.60
2022-08-25T15:03:41.680Z,34.60
2022-08-25T15:06:14.645Z,34.20
2022-08-25T15:09:01.017Z,33.90
2022-08-25T15:11:30.346Z,33.60
2022-08-25T15:14:01.660Z,33.50
2022-08-25T15:16:35.199Z,34.10
2022-08-25T15:19:07.573Z,34.30
2022-08-25T15:21:37.603Z,34.00
2022-08-25T15:24:10.169Z,33.90
2022-08-25T15:26:44.186Z,34.30
2022-08-25T15:29:13.565Z,34.30
2022-08-25T15:31:44.576Z,34.30
2022-08-25T15:34:15.949Z,34.60
2022-08-25T15:36:44.847Z,35.10
2022-08-25T15:39:13.787Z,35.30
2022-08-25T15:41:42.861Z,35.40
2022-08-25T15:44:12.492Z,35.30
2022-08-25T15:46:49.501Z,34.80
2022-08-25T15:49:24.096Z,34.40
2022-08-25T15:51:54.404Z,34.70
2022-08-25T15:54:26.583Z,34.50
2022-08-25T15:56:56.618Z,35.60
2022-08-25T15:59:26.545Z,35.50
2022-08-25T16:01:56.739Z,35.20
2022-08-25T16:04:29.936Z,34.80
2022-08-25T16:06:58.933Z,34.70
2022-08-25T16:09:28.100Z,34.60
2022-08-25T16:12:03.980Z,33.60
2022-08-25T16:14:35.526Z,32.70
2022-08-25T16:17:04.586Z,32.30
2022-08-25T16:19:35.803Z,32.20
2022-08-25T16:22:08.946Z,32.50
2022-08-25T16:24:42.439Z,33.50
2022-08-25T16:27:12.226Z,34.50
2022-08-25T16:29:42.347Z,33.10
2022-08-25T16:32:13.335Z,32.20
2022-08-25T16:34:44.718Z,32.10
2022-08-25T16:37:14.146Z,31.80
2022-08-25T16:39:46.180Z,32.90
2022-08-25T16:42:15.246Z,32.90
2022-08-25T16:44:44.870Z,32.80
2022-08-25T16:47:14.597Z,32.90
2022-08-25T16:49:48.688Z,33.40
2022-08-25T16:52:35.407Z,33.90
2022-08-25T16:55:16.829Z,32.90
2022-08-25T16:57:48.378Z,32.00
2022-08-25T17:00:22.105Z,31.70
2022-08-25T17:02:54.423Z,31.50
2022-08-25T17:05:24.847Z,31.40
2022-08-25T17:08:10.045Z,31.30
2022-08-25T17:10:42.347Z,31.40
2022-08-25T17:13:13.026Z,31.30
2022-08-25T17:15:44.025Z,31.20
2022-08-25T17:18:21.080Z,31.40
2022-08-25T17:21:00.107Z,31.60
2022-08-25T17:23:29.686Z,31.50
2022-08-25T17:25:58.676Z,31.30
2022-08-25T17:28:28.599Z,31.30
2022-08-25T17:30:57.990Z,31.20
2022-08-25T17:33:26.963Z,31.10
2022-08-25T17:36:00.234Z,31.10
2022-08-25T17:38:30.319Z,31.00
2022-08-25T17:41:05.236Z,31.20
2022-08-25T17:43:35.465Z,31.40
2022-08-25T17:46:07.129Z,31.70
2022-08-25T17:48:38.248Z,31.60
2022-08-25T17:51:15.929Z,31.40
2022-08-25T17:53:45.516Z,31.30
2022-08-25T17:56:18.689Z,31.20
2022-08-25T17:58:47.665Z,31.10
2022-08-25T18:01:18.929Z,31.00
2022-08-25T18:03:48.284Z,31.00
2022-08-25T18:06:18.726Z,30.80
2022-08-25T18:08:52.258Z,30.70
2022-08-25T18:11:24.994Z,30.60
2022-08-25T18:13:54.446Z,30.80
2022-08-25T18:16:25.053Z,30.80
2022-08-25T18:18:55.274Z,30.70
2022-08-25T18:21:30.306Z,30.50
2022-08-25T18:24:00.296Z,30.30
2022-08-25T18:26:29.185Z,30.00
2022-08-25T18:28:58.095Z,29.60
2022-08-25T18:31:27.103Z,29.50
2022-08-25T18:33:56.013Z,29.80
2022-08-25T18:36:24.854Z,29.70
2022-08-25T18:39:13.657Z,29.60
2022-08-25T18:41:45.225Z,29.60
2022-08-25T18:44:15.459Z,29.50
2022-08-25T18:46:45.489Z,29.60
2022-08-25T18:49:17.560Z,29.80
2022-08-25T18:51:47.262Z,29.60
2022-08-25T18:54:23.104Z,29.20
2022-08-25T18:56:54.074Z,28.90
2022-08-25T18:59:23.284Z,28.60
2022-08-25T19:01:54.118Z,28.60
2022-08-25T19:04:31.249Z,28.60
2022-08-25T19:07:01.440Z,28.70
2022-08-25T19:09:32.457Z,28.70
2022-08-25T19:12:02.267Z,28.70
2022-08-25T19:14:31.296Z,28.70
2022-08-25T19:17:01.067Z,28.60
2022-08-25T19:19:30.264Z,28.70
2022-08-25T19:22:00.491Z,28.50
2022-08-25T19:24:31.015Z,28.40
2022-08-25T19:27:02.525Z,28.30
2022-08-25T19:29:32.665Z,28.40
2022-08-25T19:32:02.643Z,28.50
2022-08-25T19:34:35.295Z,28.60
2022-08-25T19:37:05.918Z,28.70
2022-08-25T19:39:39.247Z,28.40
2022-08-25T19:42:09.155Z,28.80
2022-08-25T19:44:59.135Z,28.80
2022-08-25T19:47:29.832Z,28.70
2022-08-25T19:50:00.685Z,28.80
2022-08-25T19:52:29.463Z,28.80
2022-08-25T19:55:02.827Z,28.70
2022-08-25T19:57:42.399Z,28.70
2022-08-25T20:00:16.504Z,28.70
2022-08-25T20:02:45.986Z,28.80
2022-08-25T20:05:23.934Z,28.80
2022-08-25T20:07:54.207Z,28.80
2022-08-25T20:10:27.021Z,28.70
2022-08-25T20:12:57.546Z,28.70
2022-08-25T20:15:27.584Z,28.60
2022-08-25T20:17:56.878Z,28.80
2022-08-25T20:20:34.374Z,28.90
2022-08-25T20:23:17.456Z,28.70
2022-08-25T20:25:48.176Z,28.50
2022-08-25T20:28:19.282Z,28.60
2022-08-25T20:30:48.258Z,28.80
2022-08-25T20:33:20.033Z,28.80
2022-08-25T20:35:53.031Z,28.90
2022-08-25T20:38:22.578Z,28.70
2022-08-25T20:40:53.135Z,28.80
2022-08-25T20:43:22.182Z,28.50
2022-08-25T20:45:51.058Z,28.50
2022-08-25T20:48:19.932Z,28.30
2022-08-25T20:50:57.184Z,28.30
2022-08-25T20:53:27.606Z,28.30
2022-08-25T20:55:58.214Z,28.30
2022-08-25T20:58:28.094Z,28.10
2022-08-25T21:00:56.922Z,27.90
2022-08-25T21:03:25.712Z,28.10
2022-08-25T21:05:54.515Z,27.90
2022-08-25T21:08:23.765Z,27.80
2022-08-25T21:10:54.250Z,27.80
2022-08-25T21:13:24.529Z,27.90
2022-08-25T21:15:53.430Z,27.90
2022-08-25T21:18:22.239Z,27.80
2022-08-25T21:20:51.092Z,27.80
2022-08-25T21:23:21.365Z,27.90
2022-08-25T21:25:50.214Z,27.80
2022-08-25T21:28:19.822Z,27.80
2022-08-25T21:30:51.408Z,27.70
2022-08-25T21:33:26.388Z,27.70
2022-08-25T21:35:57.223Z,27.60
2022-08-25T21:38:28.803Z,27.50
2022-08-25T21:40:58.091Z,27.50
2022-08-25T21:43:27.083Z,27.50
2022-08-25T21:45:57.389Z,27.40
2022-08-25T21:48:26.843Z,27.30
2022-08-25T21:51:06.297Z,27.30
2022-08-25T21:53:36.032Z,27.20
2022-08-25T21:56:06.537Z,27.20
2022-08-25T21:58:37.552Z,27.10
2022-08-25T22:01:11.056Z,27.10
2022-08-25T22:03:41.509Z,27.20
2022-08-25T22:06:12.736Z,27.10
2022-08-25T22:08:43.446Z,27.10
2022-08-25T22:11:12.455Z,27.10
2022-08-25T22:13:43.306Z,27.10
2022-08-25T22:16:14.225Z,27.10
2022-08-25T22:18:43.769Z,27.10
2022-08-25T22:21:12.547Z,27.10
2022-08-25T22:23:44.214Z,27.30
2022-08-25T22:26:15.487Z,27.30
2022-08-25T22:28:46.687Z,27.10
2022-08-25T22:31:20.714Z,27.10
2022-08-25T22:33:50.459Z,27.10
2022-08-25T22:36:21.348Z,27.10
2022-08-25T22:38:51.276Z,27.10
2022-08-25T22:41:21.580Z,27.10
2022-08-25T22:43:51.296Z,27.10
2022-08-25T22:46:24.382Z,27.10
2022-08-25T22:48:53.314Z,27.00
2022-08-25T22:51:25.596Z,26.80
2022-08-25T22:53:54.864Z,26.80
2022-08-25T22:56:31.963Z,27.10
2022-08-25T22:59:02.829Z,27.20
2022-08-25T23:01:33.659Z,27.20
2022-08-25T23:04:03.378Z,27.20
2022-08-25T23:06:34.558Z,27.10
2022-08-25T23:09:05.323Z,27.10
2022-08-25T23:11:35.761Z,27.20
2022-08-25T23:14:11.245Z,27.40
2022-08-25T23:16:42.559Z,27.30
2022-08-25T23:19:13.557Z,27.20
2022-08-25T23:22:00.708Z,27.30
2022-08-25T23:24:30.768Z,27.40
2022-08-25T23:27:00.934Z,27.30
2022-08-25T23:29:30.593Z,27.30
2022-08-25T23:32:00.945Z,27.30
2022-08-25T23:34:30.175Z,27.40
2022-08-25T23:36:58.975Z,27.30
2022-08-25T23:39:27.795Z,27.30
2022-08-25T23:41:56.999Z,27.20
2022-08-25T23:44:25.885Z,27.10
2022-08-25T23:46:54.831Z,27.10
2022-08-25T23:49:25.615Z,27.00
2022-08-25T23:51:55.745Z,26.90
2022-08-25T23:54:31.460Z,27.20
2022-08-25T23:57:00.616Z,27.20
2022-08-25T23:59:30.488Z,27.10
